Startpagina
METAR-TAF:

METAR-TAF

Vliegvelden :

Aeropuerto Capitán Aníbal Arab

Cobija, Bolivia

breedte: 11-02S, lengte: 068-47W, hoogte: 235 m

Actueel weer

Dit bericht is 59 minuten geleden gemaakt, om 20:00 UTC
Weinig wind
Temperatuur 34°C
Vochtigheid 63%
Druk 1006 hPa
Zicht 10 km of meer
Verspreide wolken op 2700 ft

METAR: SLCO 242000Z 00000KT 9999 SCT027 34/26 Q1006

Tijdstip: 16:59 (20:59 UTC)

Verwachting

Dit bericht is 4 uur en het 59 minuten geleden gemaakt, om 16:00 UTC
Verwachting geldig van 24 om 18 UTC tot 25 om 18 UTC
Wind 5 kt uit het noordnoordwesten
Zicht 10 km of meer
Verspreide wolken op 2000 ft
Verspreide wolken op 8000 ft
Tijdelijke
van 24 om 19 UTC tot 24 om 21 UTC
Zicht: 7000 m
Weinig wolken op 2300 ft, Cumulonimbus.
regenbuien
Wijzigt naar
van 24 om 22 UTC tot 25 om 01 UTC
Wind kt uit het noorden
Weinig wolken op 1500 ft

TAF: SLCO 241600Z 2418/2518 33005KT 9999 SCT020 SCT080 TX33/2420Z TN25 /2510Z TEMPO 2419/2421 7000 SHRA FEW023CB BECMG 2422/2501 00000KT FEW015

Waarnemingen en weersverwachtingen van meer dan 4000 vliegvelden (METAR en TAF).

De beschikbare stations zijn de gele en rode punten op de kaart.

Ga met uw muis naar het station om de naam te zien.

Klik dan om waarnemingen en weersverwachtingen te zien.

kaart wijzigen: klik op de groene knoppen met een zwart kruis om in te zoomen, op de groene knop met een streepje om uit te zoomen of op de groene pijlen voor aangrenzende kaarten.


METAR-TAF: